createdAt,value
2019-05-30T00:00:35.710Z,6.50
2019-05-30T00:03:05.369Z,6.50
2019-05-30T00:05:35.092Z,6.50
2019-05-30T00:08:04.659Z,6.40
2019-05-30T00:10:34.403Z,6.50
2019-05-30T00:13:05.189Z,6.50
2019-05-30T00:15:34.864Z,6.50
2019-05-30T00:18:05.018Z,6.50
2019-05-30T00:20:34.590Z,6.50
2019-05-30T00:23:04.206Z,6.50
2019-05-30T00:25:33.836Z,6.50
2019-05-30T00:28:05.185Z,6.50
2019-05-30T00:30:34.996Z,6.50
2019-05-30T00:33:05.139Z,6.50
2019-05-30T00:35:35.919Z,6.50
2019-05-30T00:38:06.125Z,6.50
2019-05-30T00:40:37.001Z,6.50
2019-05-30T00:43:06.647Z,6.50
2019-05-30T00:45:36.247Z,6.50
2019-05-30T00:48:06.476Z,6.40
2019-05-30T00:50:36.104Z,6.40
2019-05-30T00:53:06.927Z,6.40
2019-05-30T00:55:37.782Z,6.50
2019-05-30T00:58:07.562Z,6.40
2019-05-30T01:00:43.367Z,6.50
2019-05-30T01:03:09.014Z,6.40
2019-05-30T01:05:39.808Z,6.40
2019-05-30T01:08:09.464Z,6.40
2019-05-30T01:10:39.120Z,6.30
2019-05-30T01:13:08.700Z,6.40
2019-05-30T01:15:38.372Z,6.30
2019-05-30T01:18:07.951Z,6.30
2019-05-30T01:20:37.618Z,6.40
2019-05-30T01:23:08.146Z,6.30
2019-05-30T01:25:37.757Z,6.30
2019-05-30T01:28:07.882Z,6.30
2019-05-30T01:30:37.665Z,6.30
2019-05-30T01:33:08.029Z,6.30
2019-05-30T01:35:37.822Z,6.30
2019-05-30T01:38:08.065Z,6.20
2019-05-30T01:40:37.873Z,6.20
2019-05-30T01:43:08.251Z,6.20
2019-05-30T01:45:38.033Z,6.20
2019-05-30T01:48:08.595Z,6.10
2019-05-30T01:50:38.406Z,6.10
2019-05-30T01:53:08.895Z,6.00
2019-05-30T01:55:38.608Z,6.00
2019-05-30T01:58:09.252Z,5.90
2019-05-30T02:00:41.096Z,5.90
2019-05-30T02:03:10.685Z,5.80
2019-05-30T02:05:40.456Z,5.80
2019-05-30T02:08:30.754Z,5.70
2019-05-30T02:11:01.319Z,5.70
2019-05-30T02:13:31.079Z,5.60
2019-05-30T02:16:01.571Z,5.60
2019-05-30T02:18:31.147Z,5.60
2019-05-30T02:21:02.051Z,5.60
2019-05-30T02:23:31.797Z,5.50
2019-05-30T02:26:02.190Z,5.50
2019-05-30T02:28:32.858Z,5.50
2019-05-30T02:31:03.116Z,5.50
2019-05-30T02:33:33.671Z,5.50
2019-05-30T02:36:05.750Z,5.40
2019-05-30T02:38:34.484Z,5.40
2019-05-30T02:41:05.823Z,5.40
2019-05-30T02:43:36.632Z,5.40
2019-05-30T02:46:07.927Z,5.40
2019-05-30T02:48:54.741Z,5.30
2019-05-30T02:51:10.784Z,5.30
2019-05-30T02:53:39.951Z,5.30
2019-05-30T02:56:10.257Z,5.30
2019-05-30T02:58:40.808Z,5.20
2019-05-30T03:01:11.984Z,5.20
2019-05-30T03:03:41.628Z,5.20
2019-05-30T03:06:13.598Z,5.30
2019-05-30T03:08:42.428Z,5.30
2019-05-30T03:11:15.041Z,5.30
2019-05-30T03:13:43.266Z,5.40
2019-05-30T03:16:13.669Z,5.40
2019-05-30T03:18:43.358Z,5.50
2019-05-30T03:21:15.259Z,5.60
2019-05-30T03:23:44.268Z,5.70
2019-05-30T03:26:16.076Z,5.70
2019-05-30T03:28:45.038Z,5.80
2019-05-30T03:31:27.248Z,5.80
2019-05-30T03:33:48.323Z,5.80
2019-05-30T03:36:28.662Z,5.90
2019-05-30T03:38:49.150Z,5.90
2019-05-30T03:41:18.735Z,6.00
2019-05-30T03:43:48.315Z,6.10
2019-05-30T03:46:20.928Z,6.10
2019-05-30T03:48:53.357Z,6.20
2019-05-30T03:51:24.484Z,6.30
2019-05-30T03:53:54.620Z,6.30
2019-05-30T03:56:39.255Z,6.40
2019-05-30T03:59:26.102Z,6.40
2019-05-30T04:02:19.548Z,6.50
2019-05-30T04:04:52.628Z,6.60
2019-05-30T04:07:25.170Z,6.70
2019-05-30T04:09:57.479Z,6.70
2019-05-30T04:12:29.971Z,6.90
2019-05-30T04:15:05.256Z,7.00
2019-05-30T04:17:34.891Z,7.20
2019-05-30T04:20:07.116Z,7.30
2019-05-30T04:22:36.759Z,7.40
2019-05-30T04:25:08.580Z,7.50
2019-05-30T04:27:39.351Z,7.60
2019-05-30T04:30:09.984Z,7.80
2019-05-30T04:32:39.620Z,7.90
2019-05-30T04:35:10.253Z,8.00
2019-05-30T04:37:40.091Z,8.20
2019-05-30T04:40:11.287Z,8.30
2019-05-30T04:42:41.260Z,8.40
2019-05-30T04:45:11.788Z,8.50
2019-05-30T04:47:41.827Z,8.70
2019-05-30T04:50:12.195Z,8.80
2019-05-30T04:52:41.847Z,8.90
2019-05-30T04:55:13.511Z,9.00
2019-05-30T04:57:42.746Z,9.10
2019-05-30T05:00:15.233Z,9.20
2019-05-30T05:02:44.876Z,9.20
2019-05-30T05:05:18.845Z,9.30
2019-05-30T05:07:45.663Z,9.40
2019-05-30T05:10:16.022Z,9.50
2019-05-30T05:12:45.806Z,9.60
2019-05-30T05:15:16.426Z,9.70
2019-05-30T05:17:46.145Z,9.80
2019-05-30T05:20:17.238Z,9.80
2019-05-30T05:22:47.002Z,9.90
2019-05-30T05:25:17.445Z,9.90
2019-05-30T05:27:47.064Z,10.00
2019-05-30T05:30:17.943Z,10.00
2019-05-30T05:32:47.508Z,10.10
2019-05-30T05:35:17.268Z,10.10
2019-05-30T05:37:46.768Z,10.20
2019-05-30T05:40:16.506Z,10.30
2019-05-30T05:42:46.095Z,10.40
2019-05-30T05:45:16.293Z,10.40
2019-05-30T05:47:45.898Z,10.40
2019-05-30T05:50:16.749Z,10.50
2019-05-30T05:52:46.487Z,10.60
2019-05-30T05:55:16.676Z,10.70
2019-05-30T05:57:46.238Z,10.80
2019-05-30T06:00:18.893Z,10.90
2019-05-30T06:02:48.494Z,11.10
2019-05-30T06:05:18.089Z,11.20
2019-05-30T06:07:47.597Z,11.20
2019-05-30T06:10:17.530Z,11.20
2019-05-30T06:12:47.382Z,11.30
2019-05-30T06:15:18.782Z,11.40
2019-05-30T06:17:48.545Z,11.40
2019-05-30T06:20:19.178Z,11.50
2019-05-30T06:22:48.983Z,11.50
2019-05-30T06:25:21.595Z,11.60
2019-05-30T06:27:50.235Z,11.60
2019-05-30T06:30:20.338Z,11.70
2019-05-30T06:32:50.121Z,11.70
2019-05-30T06:35:21.396Z,11.70
2019-05-30T06:37:51.253Z,11.80
2019-05-30T06:40:21.420Z,11.80
2019-05-30T06:42:51.070Z,12.00
2019-05-30T06:45:23.679Z,12.00
2019-05-30T06:47:54.511Z,12.00
2019-05-30T06:50:24.701Z,12.10
2019-05-30T06:52:54.363Z,12.10
2019-05-30T06:55:25.142Z,12.00
2019-05-30T06:57:55.001Z,12.10
2019-05-30T07:00:26.441Z,12.20
2019-05-30T07:02:56.347Z,12.30
2019-05-30T07:05:27.872Z,12.30
2019-05-30T07:07:57.193Z,12.40
2019-05-30T07:10:26.858Z,12.30
2019-05-30T07:12:56.505Z,12.40
2019-05-30T07:15:27.206Z,12.50
2019-05-30T07:17:56.956Z,12.70
2019-05-30T07:20:27.499Z,12.60
2019-05-30T07:22:57.211Z,12.70
2019-05-30T07:25:27.858Z,12.70
2019-05-30T07:27:57.515Z,12.80
2019-05-30T07:30:27.907Z,12.90
2019-05-30T07:32:57.576Z,13.00
2019-05-30T07:35:27.980Z,13.10
2019-05-30T07:37:57.688Z,13.20
2019-05-30T07:40:28.542Z,13.30
2019-05-30T07:42:58.325Z,13.40
2019-05-30T07:45:29.007Z,13.30
2019-05-30T07:47:58.785Z,13.40
2019-05-30T07:50:28.523Z,13.50
2019-05-30T07:52:58.181Z,13.50
2019-05-30T07:55:28.888Z,13.50
2019-05-30T07:57:58.610Z,13.40
2019-05-30T08:00:29.289Z,13.50
2019-05-30T08:02:59.010Z,13.40
2019-05-30T08:05:28.721Z,13.40
2019-05-30T08:07:58.477Z,13.30
2019-05-30T08:10:27.930Z,13.40
2019-05-30T08:12:57.532Z,13.40
2019-05-30T08:15:27.347Z,13.50
2019-05-30T08:17:56.956Z,13.60
2019-05-30T08:20:27.539Z,13.70
2019-05-30T08:22:57.362Z,13.80
2019-05-30T08:25:27.880Z,14.00
2019-05-30T08:27:57.624Z,14.00
2019-05-30T08:30:28.318Z,14.10
2019-05-30T08:32:58.058Z,14.00
2019-05-30T08:35:39.191Z,14.00
2019-05-30T08:37:59.012Z,13.90
2019-05-30T08:40:29.118Z,13.90
2019-05-30T08:42:59.968Z,13.90
2019-05-30T08:45:29.610Z,14.00
2019-05-30T08:47:59.278Z,14.00
2019-05-30T08:50:30.148Z,14.20
2019-05-30T08:53:00.925Z,14.30
2019-05-30T08:55:30.608Z,14.30
2019-05-30T08:58:00.307Z,14.40
2019-05-30T09:00:30.699Z,14.50
2019-05-30T09:03:00.265Z,14.60
2019-05-30T09:05:30.007Z,14.70
2019-05-30T09:07:59.567Z,14.80
2019-05-30T09:10:29.153Z,15.00
2019-05-30T09:12:58.859Z,15.10
2019-05-30T09:15:28.757Z,15.10
2019-05-30T09:17:58.337Z,15.10
2019-05-30T09:20:30.757Z,15.00
2019-05-30T09:22:59.145Z,15.00
2019-05-30T09:25:28.824Z,15.00
2019-05-30T09:27:58.410Z,15.00
2019-05-30T09:30:28.004Z,15.10
2019-05-30T09:32:57.612Z,15.20
2019-05-30T09:35:27.214Z,15.30
2019-05-30T09:37:56.869Z,15.40
2019-05-30T09:40:26.664Z,15.40
2019-05-30T09:42:56.226Z,15.50
2019-05-30T09:45:26.019Z,15.50
2019-05-30T09:47:57.692Z,15.60
2019-05-30T09:50:27.264Z,15.70
2019-05-30T09:52:56.855Z,15.80
2019-05-30T09:55:27.713Z,15.90
2019-05-30T09:57:57.384Z,16.00
2019-05-30T10:00:27.300Z,16.00
2019-05-30T10:02:56.979Z,16.00
2019-05-30T10:05:26.957Z,16.10
2019-05-30T10:07:56.627Z,16.10
2019-05-30T10:10:26.344Z,16.00
2019-05-30T10:12:56.557Z,16.10
2019-05-30T10:15:26.320Z,16.20
2019-05-30T10:17:57.985Z,16.20
2019-05-30T10:20:27.367Z,16.20
2019-05-30T10:22:57.286Z,16.30
2019-05-30T10:25:28.625Z,16.40
2019-05-30T10:27:58.293Z,16.40
2019-05-30T10:30:28.187Z,16.50
2019-05-30T10:32:57.909Z,16.50
2019-05-30T10:35:29.932Z,16.40
2019-05-30T10:37:59.094Z,16.50
2019-05-30T10:40:31.984Z,16.70
2019-05-30T10:42:59.977Z,16.70
2019-05-30T10:45:30.645Z,16.80
2019-05-30T10:48:01.401Z,16.80
2019-05-30T10:50:30.990Z,16.80
2019-05-30T10:53:00.658Z,16.90
2019-05-30T10:55:30.325Z,16.90
2019-05-30T10:57:59.915Z,17.00
2019-05-30T11:00:48.983Z,17.00
2019-05-30T11:03:19.576Z,17.20
2019-05-30T11:05:52.894Z,17.40
2019-05-30T11:08:25.391Z,17.20
2019-05-30T11:10:55.079Z,17.20
2019-05-30T11:13:24.774Z,17.20
2019-05-30T11:15:55.519Z,17.10
2019-05-30T11:18:25.273Z,17.00
2019-05-30T11:20:56.184Z,16.90
2019-05-30T11:23:27.226Z,17.00
2019-05-30T11:25:56.806Z,17.10
2019-05-30T11:28:26.403Z,17.10
2019-05-30T11:30:56.861Z,17.00
2019-05-30T11:33:26.567Z,16.90
2019-05-30T11:35:57.139Z,16.90
2019-05-30T11:38:26.935Z,17.00
2019-05-30T11:40:57.564Z,17.00
2019-05-30T11:43:27.182Z,16.90
2019-05-30T11:45:57.781Z,16.90
2019-05-30T11:48:27.465Z,17.00
2019-05-30T11:50:57.959Z,17.00
2019-05-30T11:53:27.574Z,17.10
2019-05-30T11:55:58.208Z,17.10
2019-05-30T11:58:27.935Z,17.00
2019-05-30T12:00:58.404Z,17.00
2019-05-30T12:03:29.657Z,17.00
2019-05-30T12:06:00.713Z,16.90
2019-05-30T12:08:30.364Z,16.90
2019-05-30T12:11:01.280Z,16.90
2019-05-30T12:13:31.148Z,16.70
2019-05-30T12:16:01.823Z,16.60
2019-05-30T12:18:31.714Z,16.60
2019-05-30T12:21:02.012Z,16.50
2019-05-30T12:23:31.852Z,16.40
2019-05-30T12:26:02.270Z,16.40
2019-05-30T12:28:32.025Z,16.50
2019-05-30T12:31:05.899Z,16.50
2019-05-30T12:33:33.880Z,16.60
2019-05-30T12:36:03.577Z,16.50
2019-05-30T12:38:34.267Z,16.50
2019-05-30T12:41:03.898Z,16.20
2019-05-30T12:43:33.509Z,16.20
2019-05-30T12:46:03.290Z,16.20
2019-05-30T12:48:32.971Z,16.30
2019-05-30T12:51:03.540Z,16.40
2019-05-30T12:53:34.307Z,16.30
2019-05-30T12:56:04.225Z,16.30
2019-05-30T12:58:33.886Z,16.20
2019-05-30T13:01:03.536Z,16.20
2019-05-30T13:03:33.228Z,16.40
2019-05-30T13:06:03.415Z,16.50
2019-05-30T13:08:34.226Z,16.60
2019-05-30T13:11:05.712Z,16.50
2019-05-30T13:13:35.447Z,16.50
2019-05-30T13:16:07.614Z,16.40
2019-05-30T13:18:36.279Z,16.40
2019-05-30T13:21:06.310Z,16.40
2019-05-30T13:23:36.007Z,16.40
2019-05-30T13:26:05.962Z,16.40
2019-05-30T13:28:35.707Z,16.40
2019-05-30T13:31:06.971Z,16.40
2019-05-30T13:33:38.437Z,16.30
2019-05-30T13:36:07.869Z,16.20
2019-05-30T13:38:37.506Z,16.30
2019-05-30T13:41:07.771Z,16.30
2019-05-30T13:43:37.495Z,16.30
2019-05-30T13:46:08.418Z,16.40
2019-05-30T13:48:38.075Z,16.50
2019-05-30T13:51:07.718Z,16.50
2019-05-30T13:53:37.403Z,16.50
2019-05-30T13:56:07.805Z,16.50
2019-05-30T13:58:37.615Z,16.50
2019-05-30T14:01:11.435Z,16.50
2019-05-30T14:03:38.591Z,16.40
2019-05-30T14:06:08.382Z,16.50
2019-05-30T14:08:41.893Z,16.50
2019-05-30T14:11:10.840Z,16.40
2019-05-30T14:13:40.666Z,16.50
2019-05-30T14:16:11.061Z,16.50
2019-05-30T14:18:40.652Z,16.60
2019-05-30T14:21:11.482Z,16.50
2019-05-30T14:23:41.104Z,16.50
2019-05-30T14:26:11.664Z,16.50
2019-05-30T14:28:42.484Z,16.60
2019-05-30T14:31:13.580Z,16.50
2019-05-30T14:33:44.216Z,16.50
2019-05-30T14:36:14.778Z,16.50
2019-05-30T14:38:57.117Z,16.60
2019-05-30T14:41:15.839Z,16.50
2019-05-30T14:43:45.409Z,16.50
2019-05-30T14:46:14.988Z,16.50
2019-05-30T14:48:44.602Z,16.40
2019-05-30T14:51:14.507Z,16.40
2019-05-30T14:53:44.114Z,16.50
2019-05-30T14:56:13.774Z,16.50
2019-05-30T14:58:43.297Z,16.30
2019-05-30T15:01:13.404Z,16.40
2019-05-30T15:03:43.130Z,16.30
2019-05-30T15:06:15.352Z,16.40
2019-05-30T15:08:44.053Z,16.40
2019-05-30T15:11:15.766Z,16.30
2019-05-30T15:13:45.411Z,16.40
2019-05-30T15:16:14.999Z,16.50
2019-05-30T15:18:44.661Z,16.40
2019-05-30T15:21:14.551Z,16.40
2019-05-30T15:23:44.440Z,16.40
2019-05-30T15:26:14.255Z,16.30
2019-05-30T15:28:45.375Z,16.30
2019-05-30T15:31:14.946Z,16.20
2019-05-30T15:33:44.497Z,16.20
2019-05-30T15:36:19.701Z,16.20
2019-05-30T15:38:49.202Z,16.10
2019-05-30T15:41:18.830Z,16.10
2019-05-30T15:43:48.429Z,16.10
2019-05-30T15:46:18.139Z,16.10
2019-05-30T15:48:47.656Z,16.30
2019-05-30T15:51:17.325Z,16.30
2019-05-30T15:53:47.325Z,16.30
2019-05-30T15:56:17.323Z,16.30
2019-05-30T15:58:46.987Z,16.20
2019-05-30T16:01:20.172Z,16.20
2019-05-30T16:03:51.196Z,16.20
2019-05-30T16:06:20.898Z,16.20
2019-05-30T16:08:51.556Z,16.10
2019-05-30T16:11:23.581Z,16.10
2019-05-30T16:13:53.234Z,16.10
2019-05-30T16:16:39.062Z,16.20
2019-05-30T16:18:54.102Z,16.20
2019-05-30T16:21:26.647Z,16.10
2019-05-30T16:23:56.035Z,16.10
2019-05-30T16:26:28.175Z,16.10
2019-05-30T16:28:57.833Z,16.00
2019-05-30T16:31:27.433Z,16.00
2019-05-30T16:34:01.853Z,15.90
2019-05-30T16:36:31.430Z,16.00
2019-05-30T16:39:01.991Z,16.00
2019-05-30T16:41:33.387Z,16.00
2019-05-30T16:44:02.989Z,15.90
2019-05-30T16:46:32.650Z,15.90
2019-05-30T16:49:02.237Z,16.00
2019-05-30T16:51:31.833Z,16.10
2019-05-30T16:54:01.410Z,16.00
2019-05-30T16:56:31.120Z,16.00
2019-05-30T16:59:05.238Z,15.90
2019-05-30T17:01:34.950Z,15.80
2019-05-30T17:04:05.851Z,15.70
2019-05-30T17:06:36.098Z,15.80
2019-05-30T17:09:07.872Z,15.70
2019-05-30T17:11:37.464Z,15.70
2019-05-30T17:14:07.064Z,15.70
2019-05-30T17:16:38.194Z,15.80
2019-05-30T17:19:07.781Z,15.80
2019-05-30T17:21:37.438Z,15.70
2019-05-30T17:24:07.040Z,15.70
2019-05-30T17:26:36.710Z,15.80
2019-05-30T17:29:06.303Z,15.60
2019-05-30T17:31:35.884Z,15.50
2019-05-30T17:34:05.651Z,15.50
2019-05-30T17:36:35.300Z,15.40
2019-05-30T17:39:07.503Z,15.30
2019-05-30T17:41:37.111Z,15.30
2019-05-30T17:44:06.717Z,15.30
2019-05-30T17:46:36.397Z,15.30
2019-05-30T17:49:05.968Z,15.30
2019-05-30T17:51:35.572Z,15.30
2019-05-30T17:54:05.325Z,15.30
2019-05-30T17:56:34.930Z,15.30
2019-05-30T17:59:04.881Z,15.20
2019-05-30T18:01:34.616Z,15.10
2019-05-30T18:04:05.513Z,15.10
2019-05-30T18:06:36.579Z,15.00
2019-05-30T18:09:07.486Z,15.00
2019-05-30T18:11:37.142Z,14.90
2019-05-30T18:14:06.748Z,14.80
2019-05-30T18:16:36.344Z,14.80
2019-05-30T18:19:05.976Z,14.80
2019-05-30T18:21:35.543Z,14.80
2019-05-30T18:24:05.422Z,14.80
2019-05-30T18:26:36.184Z,14.70
2019-05-30T18:29:05.776Z,14.70
2019-05-30T18:31:35.442Z,14.70
2019-05-30T18:34:05.018Z,14.70
2019-05-30T18:36:34.614Z,14.60
2019-05-30T18:39:06.049Z,14.70
2019-05-30T18:41:35.822Z,14.70
2019-05-30T18:44:05.530Z,14.60
2019-05-30T18:46:38.376Z,14.60
2019-05-30T18:49:06.327Z,14.60
2019-05-30T18:51:36.718Z,14.50
2019-05-30T18:54:06.415Z,14.60
2019-05-30T18:56:36.977Z,14.60
2019-05-30T18:59:06.748Z,14.60
2019-05-30T19:01:37.778Z,14.50
2019-05-30T19:04:07.718Z,14.50
2019-05-30T19:06:37.342Z,14.50
2019-05-30T19:09:07.643Z,14.50
2019-05-30T19:11:38.364Z,14.50
2019-05-30T19:14:08.146Z,14.50
2019-05-30T19:16:37.786Z,14.50
2019-05-30T19:19:07.447Z,14.50
2019-05-30T19:21:37.058Z,14.50
2019-05-30T19:24:06.640Z,14.40
2019-05-30T19:26:36.758Z,14.50
2019-05-30T19:29:06.548Z,14.50
2019-05-30T19:31:36.981Z,14.40
2019-05-30T19:34:07.815Z,14.40
2019-05-30T19:36:37.615Z,14.40
2019-05-30T19:39:07.568Z,14.40
2019-05-30T19:41:53.706Z,14.40
2019-05-30T19:44:08.597Z,14.30
2019-05-30T19:46:38.417Z,14.30
2019-05-30T19:49:09.238Z,14.20
2019-05-30T19:51:41.664Z,14.30
2019-05-30T19:54:11.355Z,14.30
2019-05-30T19:56:42.056Z,14.30
2019-05-30T19:59:11.755Z,14.30
2019-05-30T20:01:41.415Z,14.20
2019-05-30T20:04:11.107Z,14.20
2019-05-30T20:06:40.945Z,14.20
2019-05-30T20:09:10.562Z,14.10
2019-05-30T20:11:41.394Z,14.10
2019-05-30T20:14:11.183Z,14.10
2019-05-30T20:16:41.913Z,14.10
2019-05-30T20:19:11.676Z,14.10
2019-05-30T20:21:42.033Z,14.10
2019-05-30T20:24:11.791Z,14.10
2019-05-30T20:26:42.550Z,14.10
2019-05-30T20:29:13.527Z,14.10
2019-05-30T20:31:43.657Z,14.10
2019-05-30T20:34:14.590Z,14.10
2019-05-30T20:36:48.419Z,14.20
2019-05-30T20:39:18.014Z,14.10
2019-05-30T20:41:47.676Z,14.10
2019-05-30T20:44:17.322Z,14.00
2019-05-30T20:46:47.335Z,14.10
2019-05-30T20:49:17.503Z,14.00
2019-05-30T20:51:47.575Z,14.10
2019-05-30T20:54:17.189Z,14.10
2019-05-30T20:56:49.686Z,14.10
2019-05-30T20:59:18.070Z,14.00
2019-05-30T21:01:47.654Z,13.90
2019-05-30T21:04:17.255Z,13.80
2019-05-30T21:06:48.572Z,13.80
2019-05-30T21:09:28.316Z,13.80
2019-05-30T21:11:53.811Z,13.80
2019-05-30T21:14:27.357Z,13.80
2019-05-30T21:16:57.994Z,13.70
2019-05-30T21:19:27.540Z,13.70
2019-05-30T21:21:57.209Z,13.70
2019-05-30T21:24:26.815Z,13.70
2019-05-30T21:26:56.810Z,13.70
2019-05-30T21:29:26.564Z,13.80
2019-05-30T21:31:56.187Z,13.80
2019-05-30T21:34:25.973Z,13.80
2019-05-30T21:36:55.666Z,13.90
2019-05-30T21:39:25.328Z,13.90
2019-05-30T21:41:54.906Z,14.00
2019-05-30T21:44:24.510Z,14.00
2019-05-30T21:46:54.104Z,14.00
2019-05-30T21:49:23.758Z,14.10
2019-05-30T21:51:53.727Z,14.10
2019-05-30T21:54:23.371Z,14.20
2019-05-30T21:56:54.055Z,14.20
2019-05-30T21:59:23.660Z,14.20
2019-05-30T22:01:57.041Z,14.30
2019-05-30T22:04:24.488Z,14.30
2019-05-30T22:06:54.133Z,14.30
2019-05-30T22:09:23.821Z,14.30
2019-05-30T22:11:53.407Z,14.40
2019-05-30T22:14:23.064Z,14.40
2019-05-30T22:16:52.743Z,14.40
2019-05-30T22:19:22.439Z,14.40
2019-05-30T22:21:52.398Z,14.40
2019-05-30T22:24:22.022Z,14.40
2019-05-30T22:26:52.622Z,14.40
2019-05-30T22:29:22.329Z,14.40
2019-05-30T22:31:53.483Z,14.40
2019-05-30T22:34:24.290Z,14.40
2019-05-30T22:36:54.034Z,14.40
2019-05-30T22:39:23.564Z,14.30
2019-05-30T22:41:53.152Z,14.30
2019-05-30T22:44:22.832Z,14.20
2019-05-30T22:46:52.402Z,14.20
2019-05-30T22:49:21.928Z,14.10
2019-05-30T22:51:51.523Z,14.00
2019-05-30T22:54:21.106Z,14.00
2019-05-30T22:56:51.525Z,14.00
2019-05-30T22:59:21.188Z,13.90
2019-05-30T23:01:51.952Z,13.90
2019-05-30T23:04:22.072Z,13.80
2019-05-30T23:06:52.431Z,13.80
2019-05-30T23:09:22.064Z,13.80
2019-05-30T23:11:51.717Z,13.70
2019-05-30T23:14:21.254Z,13.70
2019-05-30T23:16:50.817Z,13.70
2019-05-30T23:19:20.407Z,13.70
2019-05-30T23:21:51.579Z,13.70
2019-05-30T23:24:21.361Z,13.70
2019-05-30T23:26:51.718Z,13.70
2019-05-30T23:29:21.438Z,13.70
2019-05-30T23:31:51.988Z,13.70
2019-05-30T23:34:21.650Z,13.60
2019-05-30T23:36:52.242Z,13.60
2019-05-30T23:39:22.010Z,13.60
2019-05-30T23:41:52.718Z,13.60
2019-05-30T23:44:22.584Z,13.60
2019-05-30T23:46:53.354Z,13.60
2019-05-30T23:49:23.216Z,13.60
2019-05-30T23:51:54.532Z,13.50
2019-05-30T23:54:24.024Z,13.50
2019-05-30T23:56:54.714Z,13.50
2019-05-30T23:59:24.402Z,13.50
